Details From SBSP - Sao Paulo Congonhas
To SBST - BASE AEREA DE SANTOS
Flight Number -
Tags generated
Created
Modified
Stats Distance 27 nm / 50 km
Max Altitude 0 ft / 0 m
Waypoints 3
Social Downloads 0
Likes 0
Share

Download

Looking for another format? Having issues loading an existing format? Contact us
Advertisement - Login to hide

Notes

Basic altitude profile: - Ascent Rate: 2500ft/min - Ascent Speed: 250kts - Cruise Altitude: 35000ft - Cruise Speed: 420kts - Descent Rate: 1500ft/min - Descent Speed: 250kts Options: - Use NATs: yes - Use PACOTS: yes - Use low airways: yes - Use high airways: yes

Route

SBSP CGO SBST

ID Type Via Altitude (ft/m) Position (lat/lon) Dist (leg/tot) Name
O SBSP APT - 0 / 0 -23.62669 / -46.65538 - / 0 nm Sao Paulo Congonhas
CGO VOR - 0 / 0 -23.62750 / -46.65467 0 / 0 nm CONGONHAS VOR-DME
O SBST APT - 0 / 0 -23.92520 / -46.28750 26 / 27 nm BASE AEREA DE SANTOS

Altitude Profile

Advertisement - Login to hide

SBSP

Details ICAO SBSP (CGH)
Name Congonhas
Region Brazil
Timezone America/Sao_Paulo (UTC-3.0)
Stats Elevation 2,631 ft / 802 m (AMSL)
Location -23.626100° -46.656400°
Runways 2
Magnetic Variation 21.851° W

METAR

SBSP 271500Z 36011KT 9999 SCT030 23/09 Q1024

Decode

TAF

TAF SBSP 271000Z 2712/2724 06005KT CAVOK TX24/2717Z TN19/2723Z BECMG 2712/2714 35010KT SCT045 BECMG 2721/2723 36004KT RMK PGL

Decode

Departure Runways

ID Width Length Bearing (true/mag) Surface Threshold Overrun Markings Lighting
17L 148 ft / 45 m 4,920 ft / 1,500 m 147.63° / 169.48° ASPHALT 197 ft / 60 m 0 ft / 0 m PREC-APP EDGE THRESHOLD
17R 148 ft / 45 m 6,360 ft / 1,938 m 147.63° / 169.48° ASPHALT 407 ft / 124 m 0 ft / 0 m PREC-APP EDGE THRESHOLD ALSF-I TDZ
35L 148 ft / 45 m 6,360 ft / 1,938 m 327.63° / 349.48° ASPHALT 180 ft / 55 m 0 ft / 0 m PREC-APP EDGE THRESHOLD
35R 148 ft / 45 m 4,920 ft / 1,500 m 327.63° / 349.48° ASPHALT 0 ft / 0 m 0 ft / 0 m PREC-APP EDGE THRESHOLD

SBST

Details ICAO SBST (SSZ)
Name Santos Air Base
Region Brazil
Timezone America/Sao_Paulo (UTC-3.0)
Stats Elevation 12 ft / 4 m (AMSL)
Location -23.928100° -46.300200°
Runways 1
Magnetic Variation 21.945° W

METAR

SBST 271400Z 00000KT CAVOK 26/17 Q1020

Decode

TAF

Not found

Destination Runways

ID Width Length Bearing (true/mag) Surface Threshold Overrun Markings Lighting
17 148 ft / 45 m 4,567 ft / 1,392 m 148.53° / 170.48° ASPHALT 0 ft / 0 m 0 ft / 0 m VISUAL EDGE THRESHOLD
35 148 ft / 45 m 4,567 ft / 1,392 m 328.53° / 350.47° ASPHALT 0 ft / 0 m 0 ft / 0 m VISUAL EDGE THRESHOLD

Popular Alternatives